createdAt,value
2018-03-16T00:00:55.733Z,96485.20
2018-03-16T00:03:24.031Z,96482.22
2018-03-16T00:05:52.317Z,96483.89
2018-03-16T00:08:20.608Z,96476.75
2018-03-16T00:10:49.653Z,96472.55
2018-03-16T00:13:17.947Z,96474.60
2018-03-16T00:15:46.233Z,96477.48
2018-03-16T00:18:14.526Z,96479.16
2018-03-16T00:20:43.578Z,96473.36
2018-03-16T00:23:11.880Z,96476.31
2018-03-16T00:25:40.220Z,96472.17
2018-03-16T00:28:09.225Z,96482.30
2018-03-16T00:30:37.516Z,96486.97
2018-03-16T00:33:05.801Z,96492.95
2018-03-16T00:35:34.090Z,96496.69
2018-03-16T00:38:03.146Z,96503.45
2018-03-16T00:40:31.438Z,96506.42
2018-03-16T00:42:59.722Z,96511.02
2018-03-16T00:45:28.028Z,96507.69
2018-03-16T00:47:57.081Z,96508.53
2018-03-16T00:50:25.365Z,96514.78
2018-03-16T00:52:53.653Z,96515.20
2018-03-16T00:55:21.946Z,96512.69
2018-03-16T00:57:50.996Z,96517.75
2018-03-16T01:00:19.289Z,96518.61
2018-03-16T01:02:47.596Z,96514.38
2018-03-16T01:05:16.653Z,96514.77
2018-03-16T01:07:44.940Z,96519.36
2018-03-16T01:10:13.221Z,96517.30
2018-03-16T01:12:41.508Z,96512.75
2018-03-16T01:15:10.554Z,96521.22
2018-03-16T01:17:38.837Z,96532.55
2018-03-16T01:20:07.114Z,96526.81
2018-03-16T01:22:35.404Z,96533.12
2018-03-16T01:25:03.689Z,96531.44
2018-03-16T01:27:31.990Z,96531.08
2018-03-16T01:30:01.040Z,96531.06
2018-03-16T01:32:29.329Z,96526.45
2018-03-16T01:34:57.616Z,96523.98
2018-03-16T01:37:25.899Z,96521.89
2018-03-16T01:39:54.193Z,96520.67
2018-03-16T01:42:23.249Z,96517.70
2018-03-16T01:44:51.541Z,96519.38
2018-03-16T01:47:19.830Z,96517.70
2018-03-16T01:49:48.885Z,96516.88
2018-03-16T01:52:17.177Z,96518.09
2018-03-16T01:54:45.459Z,96510.06
2018-03-16T01:57:13.748Z,96510.03
2018-03-16T01:59:42.053Z,96502.53
2018-03-16T02:02:10.343Z,96503.75
2018-03-16T02:04:38.620Z,96495.84
2018-03-16T02:07:06.907Z,96489.11
2018-03-16T02:09:35.188Z,96497.55
2018-03-16T02:12:04.252Z,96487.12
2018-03-16T02:14:32.542Z,96496.73
2018-03-16T02:17:00.837Z,96498.84
2018-03-16T02:19:29.121Z,96499.63
2018-03-16T02:21:57.409Z,96495.09
2018-03-16T02:24:25.698Z,96496.34
2018-03-16T02:26:53.988Z,96498.00
2018-03-16T02:29:23.037Z,96496.73
2018-03-16T02:31:51.325Z,96501.38
2018-03-16T02:34:19.620Z,96493.82
2018-03-16T02:36:47.925Z,96494.23
2018-03-16T02:39:16.212Z,96485.83
2018-03-16T02:41:44.514Z,96490.39
2018-03-16T02:44:12.797Z,96486.18
2018-03-16T02:46:41.085Z,96492.09
2018-03-16T02:49:10.875Z,96485.41
2018-03-16T02:51:39.162Z,96483.73
2018-03-16T02:54:07.454Z,96487.12
2018-03-16T02:56:35.748Z,96485.88
2018-03-16T02:59:04.825Z,96491.77
2018-03-16T03:01:33.117Z,96485.13
2018-03-16T03:04:01.405Z,96483.42
2018-03-16T03:06:30.460Z,96482.16
2018-03-16T03:08:58.754Z,96483.38
2018-03-16T03:11:27.046Z,96489.23
2018-03-16T03:13:56.104Z,96486.66
2018-03-16T03:16:24.388Z,96489.08
2018-03-16T03:18:52.692Z,96495.00
2018-03-16T03:21:21.739Z,96492.52
2018-03-16T03:23:50.040Z,96486.17
2018-03-16T03:26:18.329Z,96488.31
2018-03-16T03:28:46.626Z,96487.00
2018-03-16T03:31:15.674Z,96486.37
2018-03-16T03:33:43.980Z,96489.66
2018-03-16T03:36:12.260Z,96488.02
2018-03-16T03:38:41.324Z,96488.39
2018-03-16T03:41:10.380Z,96489.54
2018-03-16T03:43:38.657Z,96489.92
2018-03-16T03:46:06.952Z,96488.33
2018-03-16T03:48:35.238Z,96490.06
2018-03-16T03:51:03.532Z,96489.86
2018-03-16T03:53:31.812Z,96497.53
2018-03-16T03:56:00.101Z,96494.49
2018-03-16T03:58:28.384Z,96501.58
2018-03-16T04:00:57.436Z,96506.45
2018-03-16T04:03:25.726Z,96500.95
2018-03-16T04:05:54.318Z,96501.98
2018-03-16T04:08:22.569Z,96510.87
2018-03-16T04:10:50.858Z,96508.64
2018-03-16T04:13:19.151Z,96510.35
2018-03-16T04:15:47.436Z,96515.73
2018-03-16T04:18:15.717Z,96506.49
2018-03-16T04:20:44.776Z,96516.16
2018-03-16T04:23:13.056Z,96514.02
2018-03-16T04:25:41.337Z,96515.12
2018-03-16T04:28:09.634Z,96516.01
2018-03-16T04:30:37.957Z,96515.56
2018-03-16T04:33:06.244Z,96519.70
2018-03-16T04:35:34.529Z,96519.78
2018-03-16T04:38:02.825Z,96520.59
2018-03-16T04:40:31.114Z,96518.84
2018-03-16T04:42:59.404Z,96520.88
2018-03-16T04:45:28.453Z,96521.31
2018-03-16T04:47:56.743Z,96522.09
2018-03-16T04:50:25.025Z,96523.75
2018-03-16T04:52:53.317Z,96525.38
2018-03-16T04:55:22.368Z,96528.38
2018-03-16T04:57:50.665Z,96526.67
2018-03-16T05:00:18.946Z,96527.64
2018-03-16T05:02:47.233Z,96522.78
2018-03-16T05:05:15.520Z,96526.95
2018-03-16T05:07:44.569Z,96526.13
2018-03-16T05:10:12.862Z,96532.84
2018-03-16T05:12:41.144Z,96525.61
2018-03-16T05:15:09.437Z,96539.37
2018-03-16T05:17:37.721Z,96540.13
2018-03-16T05:20:06.772Z,96543.04
2018-03-16T05:22:35.052Z,96548.86
2018-03-16T05:25:03.346Z,96545.08
2018-03-16T05:27:31.629Z,96550.17
2018-03-16T05:29:59.912Z,96557.23
2018-03-16T05:32:28.192Z,96555.92
2018-03-16T05:34:57.254Z,96554.70
2018-03-16T05:37:25.542Z,96550.98
2018-03-16T05:39:53.834Z,96555.20
2018-03-16T05:42:22.117Z,96556.44
2018-03-16T05:44:51.178Z,96555.27
2018-03-16T05:47:19.460Z,96556.91
2018-03-16T05:49:47.744Z,96551.49
2018-03-16T05:52:16.027Z,96557.42
2018-03-16T05:54:44.304Z,96554.97
2018-03-16T05:57:12.596Z,96551.19
2018-03-16T05:59:41.641Z,96555.70
2018-03-16T06:02:09.933Z,96556.95
2018-03-16T06:04:38.216Z,96557.36
2018-03-16T06:07:06.505Z,96555.61
2018-03-16T06:09:34.796Z,96561.88
2018-03-16T06:12:03.853Z,96556.41
2018-03-16T06:14:32.138Z,96557.61
2018-03-16T06:17:00.435Z,96561.31
2018-03-16T06:19:29.488Z,96561.67
2018-03-16T06:21:57.776Z,96555.87
2018-03-16T06:24:26.060Z,96562.44
2018-03-16T06:26:54.379Z,96566.27
2018-03-16T06:29:23.413Z,96563.22
2018-03-16T06:31:51.713Z,96567.36
2018-03-16T06:34:19.995Z,96566.59
2018-03-16T06:36:48.285Z,96569.85
2018-03-16T06:39:17.330Z,96568.84
2018-03-16T06:41:45.648Z,96579.20
2018-03-16T06:44:13.928Z,96581.23
2018-03-16T06:46:42.976Z,96575.94
2018-03-16T06:49:11.272Z,96576.98
2018-03-16T06:51:39.558Z,96580.33
2018-03-16T06:54:08.108Z,96584.23
2018-03-16T06:56:36.462Z,96592.20
2018-03-16T06:59:04.748Z,96592.84
2018-03-16T07:01:33.033Z,96601.16
2018-03-16T07:04:01.322Z,96596.88
2018-03-16T07:06:29.603Z,96607.47
2018-03-16T07:08:57.887Z,96608.53
2018-03-16T07:11:26.181Z,96611.41
2018-03-16T07:13:54.469Z,96610.72
2018-03-16T07:16:23.512Z,96615.03
2018-03-16T07:18:51.800Z,96621.67
2018-03-16T07:21:20.080Z,96627.26
2018-03-16T07:23:48.374Z,96631.32
2018-03-16T07:26:16.649Z,96634.80
2018-03-16T07:28:44.938Z,96642.77
2018-03-16T07:31:14.022Z,96641.90
2018-03-16T07:33:42.289Z,96645.69
2018-03-16T07:36:10.577Z,96649.05
2018-03-16T07:38:38.885Z,96646.14
2018-03-16T07:41:07.160Z,96648.23
2018-03-16T07:43:35.441Z,96646.42
2018-03-16T07:46:03.725Z,96646.92
2018-03-16T07:48:32.012Z,96655.23
2018-03-16T07:51:00.300Z,96658.64
2018-03-16T07:53:29.349Z,96653.59
2018-03-16T07:55:58.400Z,96664.03
2018-03-16T07:58:26.684Z,96661.49
2018-03-16T08:00:54.972Z,96666.05
2018-03-16T08:03:23.252Z,96664.36
2018-03-16T08:05:51.541Z,96665.52
2018-03-16T08:08:20.588Z,96668.07
2018-03-16T08:10:48.884Z,96671.91
2018-03-16T08:13:17.166Z,96675.69
2018-03-16T08:15:45.459Z,96673.20
2018-03-16T08:18:14.505Z,96675.16
2018-03-16T08:20:42.812Z,96680.16
2018-03-16T08:23:11.097Z,96681.04
2018-03-16T08:25:39.378Z,96683.49
2018-03-16T08:28:07.680Z,96679.63
2018-03-16T08:30:35.965Z,96679.27
2018-03-16T08:33:04.268Z,96675.22
2018-03-16T08:35:32.552Z,96682.79
2018-03-16T08:38:00.837Z,96685.22
2018-03-16T08:40:29.111Z,96679.38
2018-03-16T08:42:57.412Z,96678.63
2018-03-16T08:45:25.688Z,96683.62
2018-03-16T08:47:53.985Z,96681.19
2018-03-16T08:50:23.030Z,96684.95
2018-03-16T08:52:51.325Z,96686.36
2018-03-16T08:55:19.614Z,96687.95
2018-03-16T08:57:48.667Z,96683.36
2018-03-16T09:00:16.945Z,96686.67
2018-03-16T09:02:45.233Z,96683.98
2018-03-16T09:05:13.520Z,96682.20
2018-03-16T09:07:41.805Z,96682.84
2018-03-16T09:10:10.081Z,96683.23
2018-03-16T09:12:38.449Z,96691.67
2018-03-16T09:15:06.677Z,96690.47
2018-03-16T09:17:34.973Z,96689.53
2018-03-16T09:20:03.257Z,96695.54
2018-03-16T09:22:31.542Z,96688.98
2018-03-16T09:24:59.836Z,96690.16
2018-03-16T09:27:28.126Z,96689.12
2018-03-16T09:29:57.191Z,96695.38
2018-03-16T09:32:25.490Z,96695.20
2018-03-16T09:34:53.836Z,96689.93
2018-03-16T09:37:22.081Z,96695.76
2018-03-16T09:39:50.371Z,96697.12
2018-03-16T09:42:18.650Z,96698.15
2018-03-16T09:44:46.941Z,96697.30
2018-03-16T09:47:15.229Z,96696.72
2018-03-16T09:49:43.516Z,96690.70
2018-03-16T09:52:11.796Z,96692.45
2018-03-16T09:54:57.762Z,96697.76
2018-03-16T09:57:26.054Z,96698.30
2018-03-16T09:59:55.123Z,96699.75
2018-03-16T10:02:23.413Z,96700.83
2018-03-16T10:04:51.697Z,96705.02
2018-03-16T10:07:19.990Z,96697.66
2018-03-16T10:09:49.050Z,96704.86
2018-03-16T10:12:17.347Z,96698.38
2018-03-16T10:14:45.633Z,96699.28
2018-03-16T10:17:13.924Z,96704.47
2018-03-16T10:19:42.976Z,96696.52
2018-03-16T10:22:11.271Z,96695.66
2018-03-16T10:24:39.562Z,96700.69
2018-03-16T10:27:08.617Z,96693.56
2018-03-16T10:29:36.896Z,96701.39
2018-03-16T10:32:05.189Z,96697.87
2018-03-16T10:34:33.476Z,96697.83
2018-03-16T10:37:01.778Z,96695.16
2018-03-16T10:39:30.056Z,96703.69
2018-03-16T10:41:58.341Z,96703.60
2018-03-16T10:44:26.633Z,96700.55
2018-03-16T10:46:54.905Z,96694.84
2018-03-16T10:49:23.189Z,96696.33
2018-03-16T10:51:51.469Z,96699.67
2018-03-16T10:54:19.761Z,96702.25
2018-03-16T10:56:48.809Z,96706.06
2018-03-16T10:59:17.092Z,96699.63
2018-03-16T11:01:50.895Z,96700.48
2018-03-16T11:04:19.137Z,96699.77
2018-03-16T11:06:53.635Z,96694.20
2018-03-16T11:09:28.738Z,96700.31
2018-03-16T11:11:57.020Z,96697.80
2018-03-16T11:14:25.316Z,96697.68
2018-03-16T11:16:53.598Z,96705.58
2018-03-16T11:19:21.903Z,96706.05
2018-03-16T11:21:50.176Z,96709.04
2018-03-16T11:24:18.461Z,96704.77
2018-03-16T11:26:47.509Z,96714.19
2018-03-16T11:29:15.793Z,96705.66
2018-03-16T11:31:44.081Z,96706.20
2018-03-16T11:34:12.366Z,96710.79
2018-03-16T11:36:40.645Z,96701.56
2018-03-16T11:39:08.932Z,96708.77
2018-03-16T11:41:37.981Z,96706.70
2018-03-16T11:44:06.257Z,96702.35
2018-03-16T11:46:34.562Z,96710.49
2018-03-16T11:49:02.881Z,96713.50
2018-03-16T11:51:31.164Z,96715.02
2018-03-16T11:53:59.445Z,96707.58
2018-03-16T11:56:27.730Z,96702.24
2018-03-16T11:58:56.006Z,96705.73
2018-03-16T12:01:24.297Z,96700.92
2018-03-16T12:03:53.340Z,96706.00
2018-03-16T12:06:22.390Z,96705.31
2018-03-16T12:08:50.678Z,96700.18
2018-03-16T12:11:18.953Z,96699.16
2018-03-16T12:13:47.233Z,96695.63
2018-03-16T12:16:15.542Z,96693.26
2018-03-16T12:18:44.581Z,96702.44
2018-03-16T12:21:12.859Z,96692.06
2018-03-16T12:23:41.158Z,96696.21
2018-03-16T12:26:09.443Z,96689.94
2018-03-16T12:28:49.695Z,96696.61
2018-03-16T12:31:06.780Z,96694.67
2018-03-16T12:33:35.062Z,96692.20
2018-03-16T12:36:03.342Z,96704.01
2018-03-16T12:38:31.626Z,96697.05
2018-03-16T12:40:59.912Z,96697.48
2018-03-16T12:43:28.213Z,96698.66
2018-03-16T12:45:56.500Z,96693.02
2018-03-16T12:48:24.801Z,96693.48
2018-03-16T12:50:53.076Z,96706.55
2018-03-16T12:53:21.358Z,96705.12
2018-03-16T12:55:49.641Z,96707.56
2018-03-16T12:58:17.916Z,96709.52
2018-03-16T13:00:46.200Z,96707.41
2018-03-16T13:03:14.476Z,96702.48
2018-03-16T13:05:42.751Z,96706.94
2018-03-16T13:08:11.029Z,96704.48
2018-03-16T13:10:39.317Z,96705.42
2018-03-16T13:13:07.592Z,96707.34
2018-03-16T13:15:35.882Z,96702.84
2018-03-16T13:18:04.160Z,96703.73
2018-03-16T13:20:32.448Z,96709.50
2018-03-16T13:23:01.497Z,96706.38
2018-03-16T13:25:29.786Z,96707.09
2018-03-16T13:27:58.076Z,96708.38
2018-03-16T13:30:26.375Z,96718.50
2018-03-16T13:32:55.442Z,96713.23
2018-03-16T13:35:23.712Z,96720.85
2018-03-16T13:37:51.998Z,96721.77
2018-03-16T13:40:20.284Z,96722.18
2018-03-16T13:42:48.565Z,96723.25
2018-03-16T13:45:17.617Z,96720.14
2018-03-16T13:47:45.906Z,96713.16
2018-03-16T13:50:14.191Z,96715.45
2018-03-16T13:52:42.478Z,96713.16
2018-03-16T13:55:10.765Z,96717.48
2018-03-16T13:57:39.810Z,96710.16
2018-03-16T14:00:08.093Z,96712.88
2018-03-16T14:02:36.379Z,96712.01
2018-03-16T14:05:04.665Z,96710.11
2018-03-16T14:07:48.453Z,96708.58
2018-03-16T14:10:16.824Z,96708.12
2018-03-16T14:12:45.155Z,96702.14
2018-03-16T14:15:13.533Z,96706.36
2018-03-16T14:17:41.891Z,96701.84
2018-03-16T14:20:10.172Z,96698.36
2018-03-16T14:22:38.541Z,96696.27
2018-03-16T14:25:06.847Z,96705.05
2018-03-16T14:27:43.712Z,96707.02
2018-03-16T14:30:12.026Z,96713.17
2018-03-16T14:32:40.342Z,96714.17
2018-03-16T14:35:08.652Z,96705.44
2018-03-16T15:23:52.367Z,96706.06
2018-03-16T15:26:21.809Z,96709.57
2018-03-16T15:28:50.923Z,96705.47
2018-03-16T15:31:19.255Z,96704.86
2018-03-16T15:33:47.571Z,96707.20
2018-03-16T15:36:16.664Z,96701.94
2018-03-16T15:38:45.746Z,96696.41
2018-03-16T15:41:14.821Z,96702.84
2018-03-16T15:47:13.192Z,96700.28
2018-03-16T15:49:41.434Z,96699.05
2018-03-16T15:52:10.483Z,96695.73
2018-03-16T15:54:38.758Z,96702.11
2018-03-16T15:57:07.058Z,96693.87
2018-03-16T15:59:35.449Z,96695.59
2018-03-16T16:02:04.531Z,96696.27
2018-03-16T16:04:33.588Z,96698.06
2018-03-16T16:07:01.859Z,96700.65
2018-03-16T16:09:30.137Z,96701.38
2018-03-16T16:11:58.423Z,96702.02
2018-03-16T16:14:26.677Z,96694.00
2018-03-16T16:16:54.929Z,96698.54
2018-03-16T16:19:24.540Z,96695.96
2018-03-16T16:21:52.838Z,96699.48
2018-03-16T16:24:23.503Z,96699.02
2018-03-16T16:26:51.782Z,96704.17
2018-03-16T16:29:20.100Z,96704.69
2018-03-16T16:31:48.431Z,96705.58
2018-03-16T16:43:36.897Z,96707.36
2018-03-16T16:46:07.032Z,96703.19
2018-03-16T16:48:36.079Z,96708.63
2018-03-16T16:51:05.254Z,96703.58
2018-03-16T16:53:33.669Z,96709.09
2018-03-16T16:56:02.872Z,96713.69
2018-03-16T16:58:32.906Z,96708.59
2018-03-16T17:01:01.215Z,96710.32
2018-03-16T17:03:29.475Z,96705.27
2018-03-16T17:05:58.436Z,96706.61
2018-03-16T17:08:26.683Z,96705.84
2018-03-16T17:10:55.700Z,96707.54
2018-03-16T17:13:23.956Z,96713.95
2018-03-16T17:15:52.963Z,96715.75
2018-03-16T17:18:21.215Z,96716.60
2018-03-16T17:20:50.544Z,96717.19
2018-03-16T17:23:19.023Z,96722.19
2018-03-16T17:25:47.463Z,96729.31
2018-03-16T17:28:15.780Z,96728.50
2018-03-16T17:30:44.118Z,96731.05
2018-03-16T17:33:12.473Z,96732.34
2018-03-16T17:35:59.615Z,96732.40
2018-03-16T17:49:34.760Z,96729.64
2018-03-16T17:52:03.206Z,96734.71
2018-03-16T17:54:31.651Z,96731.83
2018-03-16T17:57:00.056Z,96735.62
2018-03-16T17:59:28.395Z,96739.41
2018-03-16T18:01:56.688Z,96737.77
2018-03-16T18:04:25.123Z,96736.14
2018-03-16T18:06:53.561Z,96736.11
2018-03-16T18:09:21.952Z,96737.94
2018-03-16T18:11:50.445Z,96734.58
2018-03-16T18:14:18.892Z,96737.62
2018-03-16T18:16:47.399Z,96743.48
2018-03-16T18:19:15.900Z,96742.22
2018-03-16T18:21:45.130Z,96746.98
2018-03-16T18:24:13.561Z,96749.47
2018-03-16T18:26:42.806Z,96753.64
2018-03-16T18:29:11.064Z,96753.23
2018-03-16T18:31:39.324Z,96751.53
2018-03-16T18:34:08.356Z,96755.77
2018-03-16T18:36:36.593Z,96754.15
2018-03-16T18:39:05.610Z,96748.75
2018-03-16T18:41:33.891Z,96755.02
2018-03-16T18:44:02.147Z,96758.41
2018-03-16T18:46:31.179Z,96760.06
2018-03-16T18:48:59.476Z,96760.98
2018-03-16T18:51:27.716Z,96763.06
2018-03-16T18:53:55.973Z,96776.85
2018-03-16T18:56:25.419Z,96781.43
2018-03-16T18:58:53.677Z,96787.27
2018-03-16T19:01:21.979Z,96791.97
2018-03-16T19:03:50.240Z,96796.33
2018-03-16T19:06:18.518Z,96799.43
2018-03-16T19:08:46.777Z,96802.09
2018-03-16T19:11:15.031Z,96800.44
2018-03-16T19:13:43.295Z,96805.11
2018-03-16T19:16:12.307Z,96813.55
2018-03-16T19:18:40.580Z,96823.27
2018-03-16T19:21:08.837Z,96836.69
2018-03-16T19:23:37.105Z,96834.62
2018-03-16T19:26:05.363Z,96840.05
2018-03-16T19:28:33.627Z,96836.32
2018-03-16T19:31:01.880Z,96838.81
2018-03-16T19:33:30.133Z,96839.66
2018-03-16T19:35:58.391Z,96851.38
2018-03-16T19:38:27.406Z,96846.78
2018-03-16T19:40:55.658Z,96847.63
2018-03-16T19:43:24.684Z,96857.23
2018-03-16T19:45:52.935Z,96854.31
2018-03-16T19:48:21.947Z,96852.61
2018-03-16T19:50:50.196Z,96862.63
2018-03-16T19:53:18.432Z,96871.40
2018-03-16T19:55:46.689Z,96874.72
2018-03-16T19:58:14.938Z,96880.16
2018-03-16T20:00:43.960Z,96884.73
2018-03-16T20:03:12.217Z,96881.70
2018-03-16T20:05:40.466Z,96884.92
2018-03-16T20:08:09.479Z,96895.81
2018-03-16T20:10:37.740Z,96896.09
2018-03-16T20:13:06.747Z,96893.64
2018-03-16T20:15:35.000Z,96903.57
2018-03-16T20:18:04.069Z,96891.05
2018-03-16T20:20:32.311Z,96893.94
2018-03-16T20:23:00.573Z,96888.45
2018-03-16T20:25:28.828Z,96890.57
2018-03-16T20:27:57.853Z,96893.49
2018-03-16T20:30:26.110Z,96896.36
2018-03-16T20:32:54.369Z,96900.09
2018-03-16T20:35:23.388Z,96897.98
2018-03-16T20:37:51.655Z,96904.17
2018-03-16T20:40:19.912Z,96907.91
2018-03-16T20:42:48.949Z,96907.06
2018-03-16T20:45:17.197Z,96903.78
2018-03-16T20:47:45.459Z,96907.13
2018-03-16T20:50:14.485Z,96908.30
2018-03-16T20:52:42.744Z,96910.82
2018-03-16T20:55:11.002Z,96914.87
2018-03-16T20:57:40.029Z,96920.30
2018-03-16T21:00:08.287Z,96919.23
2018-03-16T21:02:36.548Z,96923.02
2018-03-16T21:05:05.582Z,96928.20
2018-03-16T21:07:33.839Z,96934.13
2018-03-16T21:10:03.041Z,96926.69
2018-03-16T21:12:31.403Z,96936.55
2018-03-16T21:14:59.668Z,96940.27
2018-03-16T21:17:28.690Z,96942.19
2018-03-16T21:19:56.984Z,96940.52
2018-03-16T21:22:25.404Z,96942.61
2018-03-16T21:24:54.439Z,96939.72
2018-03-16T21:27:22.683Z,96936.09
2018-03-16T21:29:51.711Z,96937.52
2018-03-16T21:32:19.967Z,96938.56
2018-03-16T21:34:48.226Z,96940.58
2018-03-16T21:37:17.256Z,96948.11
2018-03-16T21:39:45.510Z,96944.18
2018-03-16T21:42:13.775Z,96952.50
2018-03-16T21:44:42.794Z,96949.97
2018-03-16T21:47:11.095Z,96948.23
2018-03-16T21:49:39.366Z,96948.72
2018-03-16T21:52:07.628Z,96949.86
2018-03-16T21:54:35.888Z,96946.48
2018-03-16T21:57:04.138Z,96948.61
2018-03-16T21:59:33.175Z,96950.08
2018-03-16T22:02:01.436Z,96943.38
2018-03-16T22:04:29.693Z,96941.64
2018-03-16T22:06:58.724Z,96927.79
2018-03-16T22:09:26.979Z,96919.84
2018-03-16T22:11:55.295Z,96918.59
2018-03-16T22:14:23.570Z,96917.19
2018-03-16T22:16:51.828Z,96914.16
2018-03-16T22:19:20.079Z,96909.86
2018-03-16T22:21:48.343Z,96904.79
2018-03-16T22:24:17.451Z,96908.36
2018-03-16T22:26:45.711Z,96900.34
2018-03-16T22:29:14.782Z,96904.20
2018-03-16T22:31:43.020Z,96907.91
2018-03-16T22:34:11.429Z,96904.49
2018-03-16T22:36:39.762Z,96906.16
2018-03-16T22:39:08.028Z,96908.48
2018-03-16T22:41:36.272Z,96908.94
2018-03-16T22:44:04.536Z,96910.84
2018-03-16T22:46:32.792Z,96918.05
2018-03-16T22:49:01.059Z,96919.25
2018-03-16T22:51:29.328Z,96918.38
2018-03-16T22:53:57.588Z,96912.88
2018-03-16T22:56:25.843Z,96919.25
2018-03-16T22:58:54.883Z,96926.32
2018-03-16T23:01:23.131Z,96927.39
2018-03-16T23:03:51.388Z,96929.84
2018-03-16T23:06:20.407Z,96924.56
2018-03-16T23:08:48.662Z,96919.08
2018-03-16T23:11:16.925Z,96913.09
2018-03-16T23:13:45.957Z,96908.53
2018-03-16T23:16:14.216Z,96914.64
2018-03-16T23:18:42.487Z,96925.77
2018-03-16T23:21:10.739Z,96932.05
2018-03-16T23:23:39.769Z,96934.41
2018-03-16T23:26:08.023Z,96932.38
2018-03-16T23:28:37.054Z,96936.86
2018-03-16T23:31:05.316Z,96932.33
2018-03-16T23:33:33.586Z,96932.42
2018-03-16T23:36:01.848Z,96938.66
2018-03-16T23:38:30.868Z,96940.68
2018-03-16T23:40:59.136Z,96943.55
2018-03-16T23:43:27.383Z,96945.16
2018-03-16T23:45:57.028Z,96948.12
2018-03-16T23:48:26.122Z,96950.52
2018-03-16T23:50:54.426Z,96950.78
2018-03-16T23:53:22.705Z,96951.73
2018-03-16T23:55:50.981Z,96950.06
2018-03-16T23:58:19.262Z,96949.12
